This is the latest recevied weather packets stored in our database for station/object OM0AGP-15. If no packets are shown the sender has not sent any weather packets the latest 10 day(s).
| Time | Temp. | Humidity | Pressure | Rain* | Wind** | Luminosity | Snow |
|---|---|---|---|---|---|---|---|
| 1777446965 | 9.44° C | 27% | 1021.3 hPa | - | - | - | - |
| 1777446065 | 12.22° C | 27% | 1021.3 hPa | - | - | - | - |
| 1777445165 | 12.78° C | 25% | 1021.2 hPa | - | - | - | - |
| 1777444265 | 12.22° C | 24% | 1021.4 hPa | - | - | - | - |
| 1777443365 | 12.78° C | 25% | 1021.5 hPa | - | - | - | - |
| 1777442465 | 12.22° C | 25% | 1021.4 hPa | - | - | - | - |
| 1777441565 | 12.22° C | 25% | 1021.5 hPa | - | - | - | - |
| 1777440665 | 11.67° C | 28% | 1021.4 hPa | - | - | - | - |
| 1777439765 | 10° C | 32% | 1021.6 hPa | - | - | - | - |
| 1777438865 | 7.78° C | 36% | 1021.6 hPa | - | - | - | - |
| 1777437965 | 5.56° C | 39% | 1021.6 hPa | - | - | - | - |
| 1777437065 | 2.22° C | 46% | 1021.7 hPa | - | - | - | - |
| 1777436165 | -1.67° C | 58% | 1021.8 hPa | - | - | - | - |
| 1777435265 | -3.33° C | 61% | 1021.8 hPa | - | - | - | - |
| 1777434364 | -3.89° C | 64% | 1021.7 hPa | - | - | - | - |
| 1777433464 | -3.89° C | 63% | 1021.8 hPa | - | - | - | - |
| 1777432565 | -3.89° C | 63% | 1021.7 hPa | - | - | - | - |
| 1777431664 | -3.89° C | 63% | 1021.7 hPa | - | - | - | - |
| 1777430764 | -3.89° C | 63% | 1021.9 hPa | - | - | - | - |
| 1777429864 | -3.89° C | 62% | 1021.8 hPa | - | - | - | - |
| 1777428964 | -3.33° C | 60% | 1021.8 hPa | - | - | - | - |
| 1777428064 | -3.33° C | 61% | 1021.7 hPa | - | - | - | - |
| 1777427164 | -3.33° C | 60% | 1021.8 hPa | - | - | - | - |
| 1777426264 | -3.33° C | 60% | 1021.7 hPa | - | - | - | - |
| 1777425364 | -2.78° C | 60% | 1021.6 hPa | - | - | - | - |
* Rain since midnight (hover to see other rain measurements)
** Current wind speed in m/s (hover to see current wind gust speed)